createdAt,value
2019-01-09T00:01:10.200Z,2
2019-01-09T00:11:09.387Z,2.2
2019-01-09T00:21:08.582Z,2.2
2019-01-09T00:31:07.775Z,2.3
2019-01-09T00:41:06.972Z,2.4
2019-01-09T00:51:06.167Z,2.5
2019-01-09T01:01:05.362Z,2.6
2019-01-09T01:11:04.560Z,2.9
2019-01-09T01:21:03.754Z,2.8
2019-01-09T01:31:02.951Z,2.7
2019-01-09T01:41:02.146Z,2.8
2019-01-09T01:51:01.345Z,2.9
2019-01-09T02:01:00.535Z,2.9
2019-01-09T02:10:59.727Z,2.9
2019-01-09T02:20:58.925Z,2.9
2019-01-09T02:30:58.120Z,2.9
2019-01-09T02:40:57.317Z,2.9
2019-01-09T02:50:56.511Z,2.9
2019-01-09T03:00:55.701Z,2.8
2019-01-09T03:10:54.897Z,2.5
2019-01-09T03:20:54.097Z,2.6
2019-01-09T03:30:53.301Z,2.6
2019-01-09T03:40:52.478Z,2.5
2019-01-09T03:50:51.674Z,2.6
2019-01-09T04:00:50.871Z,2.5
2019-01-09T04:10:50.062Z,2.3
2019-01-09T04:20:49.253Z,2.3
2019-01-09T04:30:48.456Z,2.3
2019-01-09T04:40:47.885Z,2.1
2019-01-09T04:50:46.852Z,1.9
2019-01-09T05:00:46.050Z,1.9
2019-01-09T05:10:45.245Z,1.8
2019-01-09T05:20:44.449Z,-0.2
2019-01-09T05:30:43.647Z,-2.1
2019-01-09T05:40:42.854Z,-2.8
2019-01-09T05:50:42.048Z,-3.2
2019-01-09T06:00:41.243Z,-3.2
2019-01-09T06:10:40.445Z,-3.3
2019-01-09T06:20:39.641Z,-3.1
2019-01-09T06:30:38.838Z,-2.1
2019-01-09T06:40:38.024Z,0.4
2019-01-09T06:50:37.224Z,3.2
2019-01-09T07:00:36.426Z,5.8
2019-01-09T07:10:35.608Z,7.4
2019-01-09T07:20:34.804Z,7.6
2019-01-09T07:30:34.002Z,10.1
2019-01-09T07:40:33.276Z,10.6
2019-01-09T07:50:32.391Z,7.6
2019-01-09T08:00:31.590Z,4.6
2019-01-09T08:10:30.779Z,2.3
2019-01-09T08:20:29.970Z,2
2019-01-09T08:30:29.165Z,1.9
2019-01-09T08:40:28.362Z,2.6
2019-01-09T08:50:27.555Z,1.6
2019-01-09T09:00:26.746Z,2.5
2019-01-09T09:10:25.935Z,2.3
2019-01-09T09:20:25.130Z,1.1
2019-01-09T09:30:24.355Z,0.3
2019-01-09T09:40:23.522Z,-0.1
2019-01-09T09:50:22.716Z,0.4
2019-01-09T10:00:21.912Z,0.9
2019-01-09T10:10:21.099Z,1.4
2019-01-09T10:20:20.292Z,1.8
2019-01-09T10:30:19.483Z,1.6
2019-01-09T10:40:18.682Z,1.8
2019-01-09T10:50:17.874Z,1.5
2019-01-09T11:00:17.077Z,1.4
2019-01-09T11:10:16.327Z,1.4
2019-01-09T11:20:15.467Z,1.1
2019-01-09T11:30:14.662Z,1.4
2019-01-09T11:40:13.867Z,0.7
2019-01-09T11:50:13.061Z,0.6
2019-01-09T12:00:12.259Z,0.6
2019-01-09T12:10:11.457Z,0.4
2019-01-09T12:20:10.651Z,-0.2
2019-01-09T12:30:09.853Z,-0.5
2019-01-09T12:40:09.047Z,-0.7
2019-01-09T12:50:08.242Z,-0.3
2019-01-09T13:00:07.437Z,-0.2
2019-01-09T13:10:06.636Z,-0.1
2019-01-09T13:20:05.825Z,0.1
2019-01-09T13:30:05.026Z,0.1
2019-01-09T13:40:04.218Z,0.3
2019-01-09T13:50:03.416Z,-0.3
2019-01-09T14:00:02.611Z,-0.6
2019-01-09T14:10:01.811Z,-0.8
2019-01-09T14:20:01.003Z,-1.3
2019-01-09T14:30:00.259Z,-1.3
2019-01-09T14:39:59.389Z,-1.4
2019-01-09T14:49:58.592Z,-1.3
2019-01-09T14:59:57.781Z,-1.3
2019-01-09T15:09:57.024Z,-1.2
2019-01-09T15:19:56.178Z,-1.4
2019-01-09T15:29:55.374Z,-1.6
2019-01-09T15:39:54.569Z,-1.3
2019-01-09T15:49:53.764Z,-1.4
2019-01-09T15:59:52.959Z,-0.4
2019-01-09T16:09:52.156Z,0.9
2019-01-09T16:19:51.370Z,1.5
2019-01-09T16:29:50.559Z,1.8
2019-01-09T16:39:49.762Z,1.9
2019-01-09T16:49:48.963Z,2.1
2019-01-09T16:59:48.167Z,2.4
2019-01-09T17:09:47.359Z,2.4
2019-01-09T17:19:46.565Z,2.6
2019-01-09T17:29:45.758Z,2.6
2019-01-09T17:39:44.962Z,2.7
2019-01-09T17:49:44.158Z,2.9
2019-01-09T17:59:43.362Z,3
2019-01-09T18:09:42.557Z,3.1
2019-01-09T18:19:41.770Z,3.1
2019-01-09T18:29:40.976Z,3.2
2019-01-09T18:39:40.182Z,3.1
2019-01-09T18:49:39.393Z,3.3
2019-01-09T18:59:38.617Z,3.4
2019-01-09T19:09:37.808Z,3.3
2019-01-09T19:19:37.011Z,3.2
2019-01-09T19:29:36.222Z,3.5
2019-01-09T19:39:35.412Z,3.5
2019-01-09T19:49:34.629Z,3.4
2019-01-09T19:59:33.826Z,3.3
2019-01-09T20:09:33.033Z,3.3
2019-01-09T20:19:32.315Z,3.3
2019-01-09T20:29:31.436Z,3.3
2019-01-09T20:39:30.642Z,3.3
2019-01-09T20:49:29.839Z,3.3
2019-01-09T20:59:29.041Z,3.4
2019-01-09T21:09:28.247Z,3.4
2019-01-09T21:19:27.440Z,3.3
2019-01-09T21:29:26.642Z,3.3
2019-01-09T21:39:25.840Z,3.2
2019-01-09T21:49:25.046Z,3.3
2019-01-09T21:59:24.233Z,3.4
2019-01-09T22:09:23.448Z,3.5
2019-01-09T22:19:22.648Z,3.6
2019-01-09T22:29:21.845Z,3.7
2019-01-09T22:39:21.057Z,3.8
2019-01-09T22:49:20.246Z,4
2019-01-09T22:59:19.450Z,4.1
2019-01-09T23:09:18.644Z,4.1
2019-01-09T23:19:17.902Z,4.1
2019-01-09T23:29:17.051Z,4.1
2019-01-09T23:39:16.246Z,4.2
2019-01-09T23:49:15.441Z,4.2
2019-01-09T23:59:14.640Z,4.2
